Time;durP1;ratioP1;P1;durP2;ratioP2;P2;SDS_P1;SDS_P2;PMS_P1;PMS_P2;Temp;Humidity;BMP_temperature;BMP_pressure;BME280_temperature;BME280_humidity;BME280_pressure;Samples;Min_cycle;Max_cycle;Signal;HPM_P1;HPM_P2
2024/01/08 00:00:35;;;;;;;;;;;1.40;1.00;;;;;;5015470;28;19912;-78
2024/01/08 00:03:05;;;;;;;;;;;1.40;1.00;;;;;;5028543;28;19909;-78
2024/01/08 00:05:41;;;;;;;;;;;1.40;1.00;;;;;;5015201;28;19913;-77
2024/01/08 00:08:41;;;;;;;;;;;1.40;1.00;;;;;;5018243;28;19913;-77
2024/01/08 00:11:35;;;;;;;;;;;1.40;1.00;;;;;;5015141;28;19917;-77
2024/01/08 00:14:23;;;;;;;;;;;1.40;1.00;;;;;;5025561;28;19944;-77
2024/01/08 00:16:53;;;;;;;;;;;1.40;1.00;;;;;;5023012;28;19909;-77
2024/01/08 00:19:19;;;;;;;;;;;1.40;1.00;;;;;;5033118;28;19913;-77
2024/01/08 00:21:44;;;;;;;;;;;1.40;1.00;;;;;;5014765;28;19984;-77
2024/01/08 00:24:11;;;;;;;;;;;1.40;1.00;;;;;;5026931;28;20410;-77
2024/01/08 00:26:41;;;;;;;;;;;1.40;1.00;;;;;;5017635;28;19909;-77
2024/01/08 00:29:29;;;;;;;;;;;1.40;1.00;;;;;;5016793;28;19905;-77
2024/01/08 00:31:59;;;;;;;;;;;1.40;1.00;;;;;;5026688;28;19956;-77
2024/01/08 00:34:29;;;;;;;;;;;1.40;1.00;;;;;;5016680;28;19992;-77
2024/01/08 00:36:55;;;;;;;;;;;1.50;1.00;;;;;;5026380;28;19955;-77
2024/01/08 00:39:24;;;;;;;;;;;1.40;1.00;;;;;;5016536;28;19906;-77
2024/01/08 00:41:59;;;;;;;;;;;1.50;1.00;;;;;;5014866;28;19910;-77
2024/01/08 00:44:59;;;;;;;;;;;1.40;1.00;;;;;;5033911;28;19909;-77
2024/01/08 00:47:35;;;;;;;;;;;1.40;1.00;;;;;;5016570;28;20395;-78
2024/01/08 00:50:05;;;;;;;;;;;1.40;1.00;;;;;;5020868;28;19909;-78
2024/01/08 00:52:41;;;;;;;;;;;1.40;1.00;;;;;;5020983;28;19913;-78
2024/01/08 00:55:12;;;;;;;;;;;1.40;1.00;;;;;;5033262;28;19905;-78
2024/01/08 00:57:54;;;;;;;;;;;1.40;1.00;;;;;;5020981;28;19909;-78
2024/01/08 01:00:23;;;;;;;;;;;1.40;1.00;;;;;;5022964;28;20272;-77
2024/01/08 01:02:59;;;;;;;;;;;1.40;1.00;;;;;;5014971;28;19909;-77
2024/01/08 01:05:25;;;;;;;;;;;1.40;1.00;;;;;;5027564;28;19912;-78
2024/01/08 01:07:50;;;;;;;;;;;1.30;1.00;;;;;;5020408;28;19912;-78
2024/01/08 01:10:16;;;;;;;;;;;1.30;1.00;;;;;;5019999;28;19932;-78
2024/01/08 01:12:59;;;;;;;;;;;1.40;1.00;;;;;;5020747;28;20012;-77
2024/01/08 01:15:35;;;;;;;;;;;1.30;1.00;;;;;;5031273;28;19945;-78
2024/01/08 01:18:11;;;;;;;;;;;1.30;1.00;;;;;;5014276;28;19909;-77
2024/01/08 01:20:41;;;;;;;;;;;1.30;1.00;;;;;;5013984;28;20012;-77
2024/01/08 01:23:11;;;;;;;;;;;1.40;1.00;;;;;;5014121;28;19917;-78
2024/01/08 01:25:41;;;;;;;;;;;1.30;1.00;;;;;;5019562;28;19909;-78
2024/01/08 01:28:11;;;;;;;;;;;1.30;1.00;;;;;;5021359;28;19905;-77
2024/01/08 01:30:37;;;;;;;;;;;1.30;1.00;;;;;;5015153;28;19916;-77
2024/01/08 01:33:02;;;;;;;;;;;1.30;1.00;;;;;;5026293;28;19905;-77
2024/01/08 01:35:35;;;;;;;;;;;1.30;1.00;;;;;;5024961;28;19910;-77
2024/01/08 01:38:11;;;;;;;;;;;1.30;1.00;;;;;;5030008;28;19952;-77
2024/01/08 01:40:41;;;;;;;;;;;1.20;1.00;;;;;;5025214;28;19905;-77
2024/01/08 01:43:24;;;;;;;;;;;1.30;1.00;;;;;;5029653;28;19996;-77
2024/01/08 01:46:11;;;;;;;;;;;1.30;1.00;;;;;;5014118;28;20374;-78
2024/01/08 01:48:41;;;;;;;;;;;1.30;1.00;;;;;;5017165;28;19964;-78
2024/01/08 01:51:12;;;;;;;;;;;1.20;1.00;;;;;;5013903;28;19973;-77
2024/01/08 01:53:41;;;;;;;;;;;1.20;1.00;;;;;;5024725;28;19912;-78
2024/01/08 01:56:11;;;;;;;;;;;1.20;1.00;;;;;;5015764;28;19913;-78
2024/01/08 01:58:42;;;;;;;;;;;1.20;1.00;;;;;;5025973;28;19983;-77
2024/01/08 02:01:11;;;;;;;;;;;1.10;1.00;;;;;;5014377;28;19944;-78
2024/01/08 02:03:41;;;;;;;;;;;1.20;1.00;;;;;;5013635;28;19917;-77
2024/01/08 02:06:12;;;;;;;;;;;1.20;1.00;;;;;;5015907;28;19948;-77
2024/01/08 02:08:41;;;;;;;;;;;1.20;1.00;;;;;;5016879;28;20337;-77
2024/01/08 02:11:11;;;;;;;;;;;1.20;1.00;;;;;;5029301;28;19912;-77
2024/01/08 02:13:41;;;;;;;;;;;1.20;1.00;;;;;;5023924;28;19916;-77
2024/01/08 02:16:11;;;;;;;;;;;1.20;1.00;;;;;;5017250;28;19912;-77
2024/01/08 02:18:41;;;;;;;;;;;1.20;1.00;;;;;;5019241;28;20000;-77
2024/01/08 02:21:07;;;;;;;;;;;1.20;1.00;;;;;;5026956;28;19963;-77
2024/01/08 02:23:33;;;;;;;;;;;1.20;1.00;;;;;;5030285;28;19909;-77
2024/01/08 02:25:58;;;;;;;;;;;1.20;1.00;;;;;;5026575;28;19968;-77
2024/01/08 02:28:24;;;;;;;;;;;1.20;1.00;;;;;;5020654;28;19913;-77
2024/01/08 02:30:55;;;;;;;;;;;1.20;1.00;;;;;;5016998;28;19905;-77
2024/01/08 02:33:29;;;;;;;;;;;1.20;1.00;;;;;;5020083;28;19905;-76
2024/01/08 02:36:11;;;;;;;;;;;1.20;1.00;;;;;;5025563;28;19905;-77
2024/01/08 02:38:47;;;;;;;;;;;1.30;1.00;;;;;;5016863;28;19956;-77
2024/01/08 02:41:23;;;;;;;;;;;1.20;1.00;;;;;;5016768;28;19905;-77
2024/01/08 02:43:53;;;;;;;;;;;1.20;1.00;;;;;;5016740;28;20378;-77
2024/01/08 02:46:41;;;;;;;;;;;1.20;1.00;;;;;;5025394;28;19909;-77
2024/01/08 02:49:11;;;;;;;;;;;1.20;1.00;;;;;;5016847;28;19948;-77
2024/01/08 02:51:37;;;;;;;;;;;1.20;1.00;;;;;;5017510;28;19909;-77
2024/01/08 02:54:11;;;;;;;;;;;1.20;1.00;;;;;;5017428;28;19912;-76
2024/01/08 02:56:37;;;;;;;;;;;1.20;1.00;;;;;;5027803;28;19905;-76
2024/01/08 02:59:11;;;;;;;;;;;1.10;1.00;;;;;;5016753;28;19905;-77
2024/01/08 03:01:53;;;;;;;;;;;1.10;1.00;;;;;;5016358;28;19909;-77
2024/01/08 03:04:23;;;;;;;;;;;1.10;1.00;;;;;;5016339;28;19921;-77
2024/01/08 03:06:49;;;;;;;;;;;1.10;1.00;;;;;;5021783;28;20007;-77
2024/01/08 03:09:17;;;;;;;;;;;1.10;1.00;;;;;;5036071;28;19952;-77
2024/01/08 03:11:43;;;;;;;;;;;1.10;1.00;;;;;;5036144;28;19913;-78
2024/01/08 03:14:08;;;;;;;;;;;1.10;1.00;;;;;;5022751;28;20280;-77
2024/01/08 03:16:41;;;;;;;;;;;1.10;1.00;;;;;;5022839;28;19910;-77
2024/01/08 03:19:07;;;;;;;;;;;1.10;1.00;;;;;;5021849;28;20000;-77
2024/01/08 03:21:32;;;;;;;;;;;1.00;1.00;;;;;;5022468;28;19945;-77
2024/01/08 03:24:11;;;;;;;;;;;1.00;1.00;;;;;;5027870;28;19909;-77
2024/01/08 03:26:37;;;;;;;;;;;1.00;1.00;;;;;;5030297;28;19909;-77
2024/01/08 03:32:06;;;;;;;;;;;1.00;1.00;;;;;;5035502;28;19916;-78
2024/01/08 03:34:53;;;;;;;;;;;1.00;1.00;;;;;;5025548;28;19909;-77
2024/01/08 03:37:23;;;;;;;;;;;1.00;1.00;;;;;;5024209;28;19911;-77
2024/01/08 03:39:49;;;;;;;;;;;1.00;1.00;;;;;;5020172;28;19948;-78
2024/01/08 03:42:14;;;;;;;;;;;0.90;1.00;;;;;;5015677;28;19967;-77
2024/01/08 03:44:53;;;;;;;;;;;0.90;1.00;;;;;;5044245;28;19913;-77
2024/01/08 03:47:23;;;;;;;;;;;0.90;1.00;;;;;;5015677;28;19909;-77
2024/01/08 03:49:49;;;;;;;;;;;0.90;1.00;;;;;;5021772;28;19912;-77
2024/01/08 03:52:23;;;;;;;;;;;0.90;1.00;;;;;;5034873;28;20272;-76
2024/01/08 03:54:49;;;;;;;;;;;1.00;1.00;;;;;;5022316;28;20269;-77
2024/01/08 03:57:47;;;;;;;;;;;1.00;1.00;;;;;;5031125;28;19905;-76
2024/01/08 04:00:17;;;;;;;;;;;1.00;1.00;;;;;;5015455;28;20047;-77
2024/01/08 04:02:47;;;;;;;;;;;1.00;1.00;;;;;;5033467;28;19911;-78
2024/01/08 04:05:13;;;;;;;;;;;1.00;1.00;;;;;;5035067;28;19909;-77
2024/01/08 04:07:59;;;;;;;;;;;1.00;1.00;;;;;;5021607;28;19954;-77
2024/01/08 04:10:53;;;;;;;;;;;1.00;1.00;;;;;;5034811;28;19909;-77
2024/01/08 04:16:21;;;;;;;;;;;1.00;1.00;;;;;;5019867;28;19951;-77
2024/01/08 04:18:47;;;;;;;;;;;1.00;1.00;;;;;;5014583;28;19913;-77
2024/01/08 04:21:16;;;;;;;;;;;1.00;1.00;;;;;;5036586;28;19917;-77
2024/01/08 04:23:47;;;;;;;;;;;1.10;1.00;;;;;;5028103;28;19913;-77
2024/01/08 04:26:35;;;;;;;;;;;1.10;1.00;;;;;;5028473;28;19920;-76
2024/01/08 04:29:05;;;;;;;;;;;1.00;1.00;;;;;;5033118;28;19909;-77
2024/01/08 04:31:31;;;;;;;;;;;1.00;1.00;;;;;;5034469;28;19905;-77
2024/01/08 04:33:59;;;;;;;;;;;1.00;1.00;;;;;;5026402;28;19951;-78
2024/01/08 04:36:29;;;;;;;;;;;1.00;1.00;;;;;;5014750;28;19912;-78
2024/01/08 04:38:59;;;;;;;;;;;1.10;1.00;;;;;;5022570;28;19913;-78
2024/01/08 04:41:25;;;;;;;;;;;1.00;1.00;;;;;;5031771;28;19905;-78
2024/01/08 04:43:53;;;;;;;;;;;1.00;1.00;;;;;;5014952;28;20388;-77
2024/01/08 04:46:23;;;;;;;;;;;1.00;1.00;;;;;;5017430;28;19962;-77
2024/01/08 04:49:05;;;;;;;;;;;1.00;1.00;;;;;;5053985;28;20283;-77
2024/01/08 04:51:41;;;;;;;;;;;0.90;1.00;;;;;;5014072;28;19980;-77
2024/01/08 04:54:17;;;;;;;;;;;0.90;1.00;;;;;;5031720;28;19916;-77
2024/01/08 04:56:48;;;;;;;;;;;0.90;1.00;;;;;;5034167;28;20384;-76
2024/01/08 04:59:14;;;;;;;;;;;0.90;1.00;;;;;;5030977;28;19912;-77
2024/01/08 05:01:53;;;;;;;;;;;0.90;1.00;;;;;;5013930;28;19909;-77
2024/01/08 05:04:35;;;;;;;;;;;0.80;1.00;;;;;;5014310;28;19909;-77
2024/01/08 05:07:17;;;;;;;;;;;0.80;1.00;;;;;;5014152;28;19996;-77
2024/01/08 05:10:05;;;;;;;;;;;0.90;1.00;;;;;;5024002;28;19906;-77
2024/01/08 05:12:41;;;;;;;;;;;0.90;1.00;;;;;;5020541;28;19987;-77
2024/01/08 05:15:07;;;;;;;;;;;0.90;1.00;;;;;;5033412;28;19955;-77
2024/01/08 05:17:35;;;;;;;;;;;0.80;1.00;;;;;;5025834;28;19913;-77
2024/01/08 05:20:05;;;;;;;;;;;0.80;1.00;;;;;;5031590;28;19913;-77
2024/01/08 05:22:31;;;;;;;;;;;0.80;1.00;;;;;;5034323;28;19936;-77
2024/01/08 05:24:57;;;;;;;;;;;0.80;1.00;;;;;;5032514;28;20331;-76
2024/01/08 05:27:29;;;;;;;;;;;0.90;1.00;;;;;;5033905;28;19905;-77
2024/01/08 05:29:59;;;;;;;;;;;0.90;1.00;;;;;;5020475;28;19916;-76
2024/01/08 05:32:35;;;;;;;;;;;0.80;1.00;;;;;;5029015;28;19912;-76
2024/01/08 05:38:35;;;;;;;;;;;1.00;1.00;;;;;;5033835;28;19955;-76
2024/01/08 05:41:29;;;;;;;;;;;1.00;1.00;;;;;;5023191;28;19912;-76
2024/01/08 05:43:59;;;;;;;;;;;1.00;1.00;;;;;;5027978;28;19962;-76
2024/01/08 05:46:39;;;;;;;;;;;1.00;1.00;;;;;;5037437;28;20008;-76
2024/01/08 05:49:11;;;;;;;;;;;1.00;1.00;;;;;;5034463;28;19909;-76
2024/01/08 05:51:41;;;;;;;;;;;1.00;1.00;;;;;;5019450;28;19997;-76
2024/01/08 05:54:11;;;;;;;;;;;1.00;1.00;;;;;;5022992;28;19959;-76
2024/01/08 05:56:53;;;;;;;;;;;1.00;1.00;;;;;;5037390;28;19912;-76
2024/01/08 05:59:23;;;;;;;;;;;0.90;1.00;;;;;;5034076;28;20008;-77
2024/01/08 06:01:53;;;;;;;;;;;0.90;1.00;;;;;;5027952;28;19951;-77
2024/01/08 06:04:23;;;;;;;;;;;0.90;1.00;;;;;;5032606;28;19916;-77
2024/01/08 06:06:51;;;;;;;;;;;0.90;1.00;;;;;;5017406;28;19913;-77
2024/01/08 06:09:23;;;;;;;;;;;1.00;1.00;;;;;;5023073;28;19955;-77
2024/01/08 06:11:59;;;;;;;;;;;1.00;1.00;;;;;;5037199;28;19911;-77
2024/01/08 06:17:59;;;;;;;;;;;1.00;1.00;;;;;;5036485;28;19955;-84
2024/01/08 06:23:28;;;;;;;;;;;0.90;1.00;;;;;;5030549;28;20006;-84
2024/01/08 06:25:54;;;;;;;;;;;1.00;1.00;;;;;;5023530;28;20002;-81
2024/01/08 06:31:29;;;;;;;;;;;0.90;1.00;;;;;;5030377;28;20421;-76
2024/01/08 06:33:55;;;;;;;;;;;0.90;1.00;;;;;;5024718;28;19916;-76
2024/01/08 06:36:23;;;;;;;;;;;0.90;1.00;;;;;;5022283;28;19909;-78
2024/01/08 06:39:11;;;;;;;;;;;0.80;1.00;;;;;;5020807;28;19956;-83
2024/01/08 06:41:41;;;;;;;;;;;0.80;1.00;;;;;;5023859;28;19909;-83
2024/01/08 06:47:10;;;;;;;;;;;0.80;1.00;;;;;;5022149;28;19916;-88
2024/01/08 06:55:50;;;;;;;;;;;0.70;1.00;;;;;;5017891;28;19932;-77
2024/01/08 06:58:47;;;;;;;;;;;0.60;1.00;;;;;;5034690;28;19909;-77
2024/01/08 07:01:14;;;;;;;;;;;0.60;1.00;;;;;;5035109;28;20335;-80
2024/01/08 07:03:47;;;;;;;;;;;0.60;1.00;;;;;;5021633;28;20000;-81
2024/01/08 07:06:17;;;;;;;;;;;0.60;1.00;;;;;;5022443;28;20253;-80
2024/01/08 07:09:00;;;;;;;;;;;0.50;1.00;;;;;;5034705;28;19912;-81
2024/01/08 07:14:59;;;;;;;;;;;0.60;1.00;;;;;;5023193;28;19932;-80
2024/01/08 07:17:27;;;;;;;;;;;0.50;1.00;;;;;;5035639;28;19915;-81
2024/01/08 07:19:54;;;;;;;;;;;0.40;1.00;;;;;;5027342;28;20249;-81
2024/01/08 07:22:24;;;;;;;;;;;0.50;1.00;;;;;;5015931;28;19959;-81
2024/01/08 07:24:49;;;;;;;;;;;0.50;1.00;;;;;;5042480;28;19913;-80
2024/01/08 07:27:23;;;;;;;;;;;0.40;1.00;;;;;;5043070;28;19905;-80
2024/01/08 07:30:09;;;;;;;;;;;0.40;1.00;;;;;;5034049;28;19952;-80
2024/01/08 07:32:35;;;;;;;;;;;0.40;1.00;;;;;;5021202;28;19979;-77
2024/01/08 07:35:02;;;;;;;;;;;0.30;1.00;;;;;;5030749;28;19909;-77
2024/01/08 07:37:28;;;;;;;;;;;0.30;1.00;;;;;;5026670;28;20357;-78
2024/01/08 07:39:53;;;;;;;;;;;0.20;1.00;;;;;;5020696;28;19912;-77
2024/01/08 07:42:19;;;;;;;;;;;0.10;1.00;;;;;;5021604;28;19909;-77
2024/01/08 07:44:47;;;;;;;;;;;0.10;1.00;;;;;;5029328;28;19913;-78
2024/01/08 07:47:13;;;;;;;;;;;0.00;1.00;;;;;;5025451;28;19909;-78
2024/01/08 07:49:47;;;;;;;;;;;0.00;1.00;;;;;;5033442;28;19905;-78
2024/01/08 07:52:13;;;;;;;;;;;-0.20;1.00;;;;;;5027652;28;19912;-78
2024/01/08 07:54:39;;;;;;;;;;;-0.30;1.00;;;;;;5033847;28;19905;-78
2024/01/08 07:57:04;;;;;;;;;;;-0.40;1.00;;;;;;5026887;28;19913;-78
2024/01/08 07:59:30;;;;;;;;;;;-0.40;1.00;;;;;;5034022;28;19905;-79
2024/01/08 08:02:05;;;;;;;;;;;-0.50;1.00;;;;;;5029801;28;19959;-78
2024/01/08 08:04:35;;;;;;;;;;;-0.60;1.00;;;;;;5032830;28;20008;-81
2024/01/08 08:07:23;;;;;;;;;;;-0.60;1.00;;;;;;5034675;28;19905;-77
2024/01/08 08:10:11;;;;;;;;;;;-0.60;1.00;;;;;;5034529;28;19994;-76
2024/01/08 08:12:41;;;;;;;;;;;-0.70;1.00;;;;;;5024256;28;19916;-77
2024/01/08 08:15:35;;;;;;;;;;;-0.80;1.00;;;;;;5025677;28;20004;-77
2024/01/08 08:18:01;;;;;;;;;;;-0.80;1.00;;;;;;5028502;28;20611;-77
2024/01/08 08:20:27;;;;;;;;;;;-0.80;1.00;;;;;;5031579;28;19913;-77
2024/01/08 08:22:59;;;;;;;;;;;-0.80;1.00;;;;;;5034090;28;19916;-78
2024/01/08 08:25:41;;;;;;;;;;;-0.80;1.00;;;;;;5034189;28;19999;-77
2024/01/08 08:28:11;;;;;;;;;;;-0.80;1.00;;;;;;5029737;28;19913;-77
2024/01/08 08:30:47;;;;;;;;;;;-0.70;1.00;;;;;;5034697;28;19905;-76
2024/01/08 08:33:23;;;;;;;;;;;-0.70;1.00;;;;;;5021348;28;19913;-76
2024/01/08 08:36:05;;;;;;;;;;;-0.70;1.00;;;;;;5030162;28;19909;-76
2024/01/08 08:39:05;;;;;;;;;;;-0.70;1.00;;;;;;5026093;28;19908;-76
2024/01/08 08:41:31;;;;;;;;;;;-0.70;1.00;;;;;;5018070;28;19916;-76
2024/01/08 08:43:57;;;;;;;;;;;-0.70;1.00;;;;;;5024990;28;20284;-76
2024/01/08 08:46:23;;;;;;;;;;;-0.60;1.00;;;;;;5027181;28;19912;-76
2024/01/08 08:48:53;;;;;;;;;;;-0.60;1.00;;;;;;5023554;28;19905;-76
2024/01/08 08:51:30;;;;;;;;;;;-0.60;1.00;;;;;;5030814;28;19905;-76
2024/01/08 08:53:56;;;;;;;;;;;-0.60;1.00;;;;;;5031961;28;19905;-77
2024/01/08 08:56:23;;;;;;;;;;;-0.50;1.00;;;;;;5033914;28;19905;-77
2024/01/08 08:58:53;;;;;;;;;;;-0.50;1.00;;;;;;5024878;28;19959;-77
2024/01/08 09:01:47;;;;;;;;;;;-0.50;1.00;;;;;;5031158;28;19908;-76
2024/01/08 09:04:35;;;;;;;;;;;-0.50;1.00;;;;;;5028550;28;19909;-76
2024/01/08 09:07:01;;;;;;;;;;;-0.40;1.00;;;;;;5029643;28;20380;-76
2024/01/08 09:09:47;;;;;;;;;;;-0.40;1.00;;;;;;5026874;28;19994;-76
2024/01/08 09:12:17;;;;;;;;;;;-0.40;1.00;;;;;;5029174;28;19913;-76
2024/01/08 09:14:47;;;;;;;;;;;-0.40;1.00;;;;;;5017641;28;19912;-76
2024/01/08 09:17:13;;;;;;;;;;;-0.40;1.00;;;;;;5025683;28;20007;-78
2024/01/08 09:19:39;;;;;;;;;;;-0.30;1.00;;;;;;5026152;28;19913;-77
2024/01/08 09:22:07;;;;;;;;;;;-0.30;1.00;;;;;;5035030;28;19913;-82
2024/01/08 09:24:41;;;;;;;;;;;-0.30;1.00;;;;;;5027476;28;19917;-77
2024/01/08 09:27:07;;;;;;;;;;;-0.20;1.00;;;;;;5033663;28;20051;-77
2024/01/08 09:29:41;;;;;;;;;;;-0.10;1.00;;;;;;5030186;28;19979;-76
2024/01/08 09:32:07;;;;;;;;;;;-0.10;1.00;;;;;;5022892;28;19909;-76
2024/01/08 09:34:35;;;;;;;;;;;-0.10;1.00;;;;;;5028244;28;19932;-76
2024/01/08 09:37:05;;;;;;;;;;;0.00;1.00;;;;;;5024216;28;19906;-76
2024/01/08 09:39:47;;;;;;;;;;;0.00;1.00;;;;;;5035321;28;19905;-76
2024/01/08 09:42:13;;;;;;;;;;;0.10;1.00;;;;;;5026766;28;19905;-76
2024/01/08 09:44:53;;;;;;;;;;;0.20;1.00;;;;;;5027854;28;19913;-75
2024/01/08 09:47:24;;;;;;;;;;;0.30;1.00;;;;;;5029339;28;20272;-75
2024/01/08 09:49:53;;;;;;;;;;;0.30;1.00;;;;;;5034617;28;19905;-76
2024/01/08 09:52:24;;;;;;;;;;;0.40;1.00;;;;;;5032065;28;19905;-76
2024/01/08 09:55:00;;;;;;;;;;;0.40;1.00;;;;;;5027849;28;19909;-76
2024/01/08 09:57:29;;;;;;;;;;;0.50;1.00;;;;;;5031334;28;19952;-76
2024/01/08 09:59:55;;;;;;;;;;;0.50;1.00;;;;;;5036997;28;19909;-76
2024/01/08 10:02:29;;;;;;;;;;;0.60;1.00;;;;;;5037470;28;19920;-77
2024/01/08 10:05:11;;;;;;;;;;;0.60;1.00;;;;;;5036270;28;20386;-76
2024/01/08 10:07:37;;;;;;;;;;;0.60;1.00;;;;;;5025726;28;19905;-76
2024/01/08 10:10:11;;;;;;;;;;;0.50;1.00;;;;;;5035811;28;19905;-76
2024/01/08 10:12:49;;;;;;;;;;;0.50;1.00;;;;;;5024366;28;19905;-76
2024/01/08 10:15:41;;;;;;;;;;;0.50;1.00;;;;;;5023805;28;19909;-76
2024/01/08 10:18:14;;;;;;;;;;;0.60;1.00;;;;;;5025363;28;19905;-75
2024/01/08 10:20:39;;;;;;;;;;;0.50;1.00;;;;;;5030302;28;20345;-76
2024/01/08 10:23:16;;;;;;;;;;;0.60;1.00;;;;;;5029647;28;20004;-76
2024/01/08 10:25:48;;;;;;;;;;;0.50;1.00;;;;;;5024132;28;19909;-76
2024/01/08 10:28:19;;;;;;;;;;;0.50;1.00;;;;;;5035274;28;19930;-78
2024/01/08 10:31:05;;;;;;;;;;;0.50;1.00;;;;;;5025960;28;20344;-76
2024/01/08 10:33:36;;;;;;;;;;;0.40;1.00;;;;;;5025257;28;20395;-75
2024/01/08 10:36:07;;;;;;;;;;;0.40;1.00;;;;;;5024539;28;19916;-76
2024/01/08 10:38:33;;;;;;;;;;;0.30;1.00;;;;;;5023464;28;19905;-76
2024/01/08 10:44:18;;;;;;;;;;;0.30;1.00;;;;;;5016491;28;19955;-75
2024/01/08 10:46:59;;;;;;;;;;;0.30;1.00;;;;;;5030238;28;19992;-75
2024/01/08 10:49:33;;;;;;;;;;;0.30;1.00;;;;;;5028170;28;19909;-75
2024/01/08 10:52:32;;;;;;;;;;;0.30;1.00;;;;;;5030893;28;19905;-76
2024/01/08 10:55:08;;;;;;;;;;;0.40;1.00;;;;;;5051207;28;20348;-76
2024/01/08 10:57:54;;;;;;;;;;;0.40;1.00;;;;;;5042456;28;20312;-76
2024/01/08 11:03:24;;;;;;;;;;;0.50;1.00;;;;;;5053979;28;19958;-76
2024/01/08 11:05:51;;;;;;;;;;;0.50;1.00;;;;;;5045280;28;20400;-76
2024/01/08 11:08:32;;;;;;;;;;;0.60;1.00;;;;;;5045000;28;19968;-76
2024/01/08 11:11:23;;;;;;;;;;;0.60;1.00;;;;;;5039228;28;19912;-76
2024/01/08 11:14:03;;;;;;;;;;;0.50;1.00;;;;;;5045821;28;19951;-76
2024/01/08 11:16:53;;;;;;;;;;;0.50;1.00;;;;;;5033894;28;19905;-76
2024/01/08 11:19:19;;;;;;;;;;;0.50;1.00;;;;;;5033922;28;19908;-76
2024/01/08 11:22:11;;;;;;;;;;;0.50;1.00;;;;;;5027381;28;20572;-76
2024/01/08 11:24:42;;;;;;;;;;;0.50;1.00;;;;;;5033437;28;19909;-76
2024/01/08 11:27:20;;;;;;;;;;;0.50;1.00;;;;;;5048289;28;20272;-76
2024/01/08 11:29:57;;;;;;;;;;;0.50;1.00;;;;;;5046634;28;19959;-75
2024/01/08 11:32:48;;;;;;;;;;;0.40;1.00;;;;;;5015903;28;19993;-76
2024/01/08 11:35:43;;;;;;;;;;;0.30;1.00;;;;;;5033386;28;20345;-75
2024/01/08 11:38:14;;;;;;;;;;;0.30;1.00;;;;;;5020181;28;20376;-76
2024/01/08 11:40:47;;;;;;;;;;;0.20;1.00;;;;;;5024649;28;19937;-76
2024/01/08 11:43:29;;;;;;;;;;;0.10;1.00;;;;;;5019068;28;19905;-76
2024/01/08 11:46:00;;;;;;;;;;;0.10;1.00;;;;;;5015346;28;19917;-76
2024/01/08 11:48:35;;;;;;;;;;;0.20;1.00;;;;;;5015911;28;19909;-77
2024/01/08 11:51:05;;;;;;;;;;;0.10;1.00;;;;;;5030731;28;19906;-76
2024/01/08 11:53:36;;;;;;;;;;;0.10;1.00;;;;;;5015582;28;19912;-76
2024/01/08 11:56:11;;;;;;;;;;;0.00;1.00;;;;;;5030192;28;19905;-76
2024/01/08 11:58:37;;;;;;;;;;;0.00;1.00;;;;;;5035137;28;19912;-75
2024/01/08 12:01:20;;;;;;;;;;;0.00;1.00;;;;;;5018685;28;19909;-75
2024/01/08 12:03:56;;;;;;;;;;;-0.10;1.00;;;;;;5015528;28;19999;-75
2024/01/08 12:06:35;;;;;;;;;;;0.00;1.00;;;;;;5021789;28;20342;-76
2024/01/08 12:09:01;;;;;;;;;;;0.00;1.00;;;;;;5033513;28;19909;-76
2024/01/08 12:11:27;;;;;;;;;;;0.00;1.00;;;;;;5022983;28;19955;-76
2024/01/08 12:13:54;;;;;;;;;;;0.00;1.00;;;;;;5030312;28;19968;-75
2024/01/08 12:16:20;;;;;;;;;;;0.00;1.00;;;;;;5014802;28;20356;-75
2024/01/08 12:18:45;;;;;;;;;;;0.00;1.00;;;;;;5017559;28;20000;-76
2024/01/08 12:21:24;;;;;;;;;;;0.10;1.00;;;;;;5025869;28;19963;-76
2024/01/08 12:23:54;;;;;;;;;;;-0.10;1.00;;;;;;5015000;28;19910;-76
2024/01/08 12:26:24;;;;;;;;;;;0.00;1.00;;;;;;5015234;28;19943;-76
2024/01/08 12:28:49;;;;;;;;;;;-0.10;1.00;;;;;;5014719;28;19905;-75
2024/01/08 12:31:31;;;;;;;;;;;0.00;1.00;;;;;;5015014;28;19955;-75
2024/01/08 12:33:57;;;;;;;;;;;0.00;1.00;;;;;;5020023;28;19909;-76
2024/01/08 12:36:24;;;;;;;;;;;0.00;1.00;;;;;;5013428;28;19909;-76
2024/01/08 12:38:54;;;;;;;;;;;0.10;1.00;;;;;;5021816;28;20375;-76
2024/01/08 12:41:24;;;;;;;;;;;0.10;1.00;;;;;;5027417;28;19959;-76
2024/01/08 12:44:07;;;;;;;;;;;0.20;1.00;;;;;;5014524;28;19996;-76
2024/01/08 12:46:36;;;;;;;;;;;0.20;1.00;;;;;;5018781;28;19920;-74
2024/01/08 12:49:02;;;;;;;;;;;0.10;1.00;;;;;;5034779;28;19988;-74
2024/01/08 12:51:29;;;;;;;;;;;0.10;1.00;;;;;;5021086;28;20316;-73
2024/01/08 12:54:17;;;;;;;;;;;0.10;1.00;;;;;;5022952;28;20003;-75
2024/01/08 12:56:59;;;;;;;;;;;0.10;1.00;;;;;;5022192;28;19955;-81
2024/01/08 12:59:26;;;;;;;;;;;0.00;1.00;;;;;;5014619;28;19909;-76
2024/01/08 13:02:06;;;;;;;;;;;0.00;1.00;;;;;;5014381;28;19909;-76
2024/01/08 13:04:31;;;;;;;;;;;-0.10;1.00;;;;;;5029466;28;19910;-73
2024/01/08 13:06:57;;;;;;;;;;;-0.10;1.00;;;;;;5022489;28;20593;-74
2024/01/08 13:09:22;;;;;;;;;;;-0.10;1.00;;;;;;5018308;28;19955;-73
2024/01/08 13:11:54;;;;;;;;;;;-0.10;1.00;;;;;;5024717;28;19916;-73
2024/01/08 13:14:19;;;;;;;;;;;-0.10;1.00;;;;;;5015217;28;19924;-73
2024/01/08 13:16:48;;;;;;;;;;;-0.10;1.00;;;;;;5026557;28;20027;-74
2024/01/08 13:19:14;;;;;;;;;;;-0.20;1.00;;;;;;5015009;28;19956;-77
2024/01/08 13:21:41;;;;;;;;;;;-0.20;1.00;;;;;;5014105;28;19918;-77
2024/01/08 13:24:14;;;;;;;;;;;-0.10;1.00;;;;;;5013888;28;19920;-76
2024/01/08 13:26:42;;;;;;;;;;;0.00;1.00;;;;;;5019603;28;19949;-75
2024/01/08 13:29:08;;;;;;;;;;;0.00;1.00;;;;;;5020349;28;20257;-78
2024/01/08 13:31:36;;;;;;;;;;;0.10;1.00;;;;;;5020390;28;19912;-76
2024/01/08 13:34:18;;;;;;;;;;;0.10;1.00;;;;;;5021938;28;20308;-75
2024/01/08 13:37:05;;;;;;;;;;;0.10;1.00;;;;;;5028961;28;20453;-78
2024/01/08 13:39:35;;;;;;;;;;;-0.10;1.00;;;;;;5033697;28;19913;-76
2024/01/08 13:42:07;;;;;;;;;;;-0.30;1.00;;;;;;5031405;28;19999;-76
2024/01/08 13:44:41;;;;;;;;;;;-0.50;1.00;;;;;;5019942;28;19909;-76
2024/01/08 13:47:07;;;;;;;;;;;-0.60;1.00;;;;;;5022139;28;19905;-76
2024/01/08 13:49:36;;;;;;;;;;;-0.70;1.00;;;;;;5032558;28;19905;-75
2024/01/08 13:52:01;;;;;;;;;;;-0.80;1.00;;;;;;5016846;28;19909;-75
2024/01/08 13:54:36;;;;;;;;;;;-0.80;1.00;;;;;;5027794;28;19963;-73
2024/01/08 13:57:06;;;;;;;;;;;-0.90;1.00;;;;;;5024098;28;19909;-73
2024/01/08 13:59:31;;;;;;;;;;;-0.90;1.00;;;;;;5017853;28;19912;-74
2024/01/08 14:01:57;;;;;;;;;;;-1.00;1.00;;;;;;5050322;28;19905;-74
2024/01/08 14:04:23;;;;;;;;;;;-1.00;1.00;;;;;;5029375;28;19909;-76
2024/01/08 14:07:06;;;;;;;;;;;-0.90;1.00;;;;;;5035299;28;20284;-76
2024/01/08 14:10:00;;;;;;;;;;;-1.00;1.00;;;;;;5018198;28;19996;-76
2024/01/08 14:12:36;;;;;;;;;;;-1.00;1.00;;;;;;5030753;28;19920;-76
2024/01/08 14:15:06;;;;;;;;;;;-1.00;1.00;;;;;;5029674;28;20431;-76
2024/01/08 14:17:38;;;;;;;;;;;-1.00;1.00;;;;;;5032338;28;19949;-76
2024/01/08 14:20:07;;;;;;;;;;;-1.00;1.00;;;;;;5017287;28;19920;-75
2024/01/08 14:22:54;;;;;;;;;;;-1.00;1.00;;;;;;5028005;28;19914;-76
2024/01/08 14:25:42;;;;;;;;;;;-1.10;1.00;;;;;;5019082;28;19909;-76
2024/01/08 14:28:12;;;;;;;;;;;-1.30;1.00;;;;;;5025030;28;19906;-76
2024/01/08 14:30:37;;;;;;;;;;;-1.30;1.00;;;;;;5017794;28;19905;-76
2024/01/08 14:33:06;;;;;;;;;;;-1.40;1.00;;;;;;5036048;28;20004;-76
2024/01/08 14:35:53;;;;;;;;;;;-1.50;1.00;;;;;;5024064;28;19905;-76
2024/01/08 14:38:24;;;;;;;;;;;-1.40;1.00;;;;;;5033748;28;19955;-76
2024/01/08 14:41:11;;;;;;;;;;;-1.40;1.00;;;;;;5017334;28;20417;-76
2024/01/08 14:43:37;;;;;;;;;;;-1.40;1.00;;;;;;5016650;28;19948;-75
2024/01/08 14:46:05;;;;;;;;;;;-1.50;1.00;;;;;;5029691;28;19956;-76
2024/01/08 14:49:06;;;;;;;;;;;-1.50;1.00;;;;;;5016222;28;19909;-76
2024/01/08 14:51:42;;;;;;;;;;;-1.50;1.00;;;;;;5030113;28;19906;-76
2024/01/08 14:54:07;;;;;;;;;;;-1.50;1.00;;;;;;5024777;28;19910;-76
2024/01/08 14:56:33;;;;;;;;;;;-1.60;1.00;;;;;;5022021;28;19995;-76
2024/01/08 14:59:12;;;;;;;;;;;-1.60;1.00;;;;;;5024319;28;20321;-76
2024/01/08 15:01:48;;;;;;;;;;;-1.60;1.00;;;;;;5023958;28;20000;-76
2024/01/08 15:04:18;;;;;;;;;;;-1.60;1.00;;;;;;5036480;28;19909;-74
2024/01/08 15:06:48;;;;;;;;;;;-1.70;1.00;;;;;;5025449;28;19909;-74
2024/01/08 15:09:14;;;;;;;;;;;-1.70;1.00;;;;;;5019453;28;19928;-74
2024/01/08 15:11:40;;;;;;;;;;;-1.70;1.00;;;;;;5025232;28;20257;-72
2024/01/08 15:14:06;;;;;;;;;;;-1.80;1.00;;;;;;5027934;28;19909;-75
2024/01/08 15:16:32;;;;;;;;;;;-1.80;1.00;;;;;;5026285;28;19956;-74
2024/01/08 15:18:57;;;;;;;;;;;-1.90;1.00;;;;;;5019088;28;20010;-74
2024/01/08 15:21:24;;;;;;;;;;;-1.90;1.00;;;;;;5027518;28;19929;-76
2024/01/08 15:23:54;;;;;;;;;;;-2.10;1.00;;;;;;5019411;28;19905;-79
2024/01/08 15:26:42;;;;;;;;;;;-2.20;1.00;;;;;;5025874;28;19958;-77
2024/01/08 15:29:35;;;;;;;;;;;-2.20;1.00;;;;;;5015292;28;19913;-76
2024/01/08 15:32:12;;;;;;;;;;;-2.20;1.00;;;;;;5015845;28;19906;-75
2024/01/08 15:34:42;;;;;;;;;;;-2.30;1.00;;;;;;5020732;28;20365;-74
2024/01/08 15:37:18;;;;;;;;;;;-2.40;1.00;;;;;;5017418;28;19905;-74
2024/01/08 15:39:44;;;;;;;;;;;-2.40;1.00;;;;;;5015908;28;19909;-74
2024/01/08 15:42:12;;;;;;;;;;;-2.60;1.00;;;;;;5015666;28;19913;-75
2024/01/08 15:44:48;;;;;;;;;;;-2.60;1.00;;;;;;5015709;28;20016;-74
2024/01/08 15:47:18;;;;;;;;;;;-2.60;1.00;;;;;;5019247;28;19909;-74
2024/01/08 15:49:43;;;;;;;;;;;-2.60;1.00;;;;;;5034108;28;19915;-73